createdAt,value
2023-04-25T00:00:22.637Z,25.00
2023-04-25T00:01:22.655Z,25.00
2023-04-25T00:02:22.784Z,25.00
2023-04-25T00:03:23.141Z,25.00
2023-04-25T00:04:23.380Z,23.97
2023-04-25T00:05:21.939Z,25.00
2023-04-25T00:06:22.739Z,16.00
2023-04-25T00:07:22.784Z,26.88
2023-04-25T00:08:22.814Z,29.61
2023-04-25T00:09:22.854Z,22.94
2023-04-25T00:10:22.893Z,21.68
2023-04-25T00:11:22.929Z,19.70
2023-04-25T00:12:22.962Z,15.71
2023-04-25T00:13:23.143Z,12.80
2023-04-25T00:14:23.061Z,27.75
2023-04-25T00:15:23.056Z,0.00
2023-04-25T00:16:23.166Z,0.00
2023-04-25T00:17:23.178Z,0.00
2023-04-25T00:18:23.131Z,31.36
2023-04-25T00:19:23.180Z,82.25
2023-04-25T00:20:23.190Z,124.47
2023-04-25T00:21:23.227Z,225.13
2023-04-25T00:22:23.267Z,264.15
2023-04-25T00:23:23.287Z,267.74
2023-04-25T00:24:23.346Z,263.40
2023-04-25T00:25:23.374Z,256.81
2023-04-25T00:26:23.402Z,250.00
2023-04-25T00:27:23.440Z,253.15
2023-04-25T00:28:23.492Z,253.81
2023-04-25T00:29:23.507Z,256.02
2023-04-25T00:30:23.596Z,247.71
2023-04-25T00:31:23.621Z,239.93
2023-04-25T00:32:23.603Z,243.13
2023-04-25T00:33:23.619Z,247.52
2023-04-25T00:34:23.655Z,250.00
2023-04-25T00:35:23.692Z,249.43
2023-04-25T00:36:23.712Z,250.00
2023-04-25T00:37:23.785Z,250.00
2023-04-25T00:38:23.766Z,250.29
2023-04-25T00:39:23.800Z,250.00
2023-04-25T00:40:23.825Z,250.00
2023-04-25T00:41:23.855Z,250.00
2023-04-25T00:42:23.866Z,248.07
2023-04-25T00:43:23.884Z,245.44
2023-04-25T00:44:23.909Z,243.63
2023-04-25T00:45:23.922Z,241.85
2023-04-25T00:46:24.908Z,241.61
2023-04-25T00:47:23.985Z,236.54
2023-04-25T00:48:24.001Z,235.43
2023-04-25T00:49:24.076Z,225.65
2023-04-25T00:50:24.159Z,217.32
2023-04-25T00:51:24.226Z,207.98
2023-04-25T00:52:24.282Z,179.51
2023-04-25T00:53:24.314Z,156.50
2023-04-25T00:54:24.346Z,147.99
2023-04-25T00:55:24.363Z,151.20
2023-04-25T00:56:24.413Z,150.44
2023-04-25T00:57:24.408Z,154.14
2023-04-25T00:58:24.462Z,159.12
2023-04-25T00:59:24.508Z,167.93
2023-04-25T01:00:24.582Z,169.74
2023-04-25T01:01:24.752Z,161.77
2023-04-25T01:02:24.802Z,151.64
2023-04-25T01:03:24.896Z,151.88
2023-04-25T01:04:24.770Z,151.13
2023-04-25T01:05:24.770Z,147.20
2023-04-25T01:06:24.797Z,154.61
2023-04-25T01:07:24.896Z,163.33
2023-04-25T01:08:24.947Z,164.49
2023-04-25T01:09:25.021Z,160.97
2023-04-25T01:10:25.075Z,182.74
2023-04-25T01:11:25.103Z,188.03
2023-04-25T01:12:25.121Z,187.34
2023-04-25T01:13:25.164Z,184.75
2023-04-25T01:14:25.205Z,174.84
2023-04-25T01:15:25.255Z,171.18
2023-04-25T01:16:25.370Z,170.68
2023-04-25T01:17:25.424Z,164.43
2023-04-25T01:18:25.506Z,165.22
2023-04-25T01:19:25.503Z,173.69
2023-04-25T01:20:25.493Z,176.02
2023-04-25T01:21:25.556Z,177.86
2023-04-25T01:22:25.589Z,180.35
2023-04-25T01:23:25.636Z,188.05
2023-04-25T01:24:25.660Z,189.43
2023-04-25T01:25:25.706Z,181.25
2023-04-25T01:26:25.779Z,180.99
2023-04-25T01:27:25.835Z,183.12
2023-04-25T01:28:25.885Z,189.95
2023-04-25T01:29:25.957Z,194.63
2023-04-25T01:30:26.013Z,204.51
2023-04-25T01:31:26.123Z,205.81
2023-04-25T01:32:26.120Z,196.32
2023-04-25T01:33:26.170Z,187.85
2023-04-25T01:34:26.235Z,186.60
2023-04-25T01:35:26.260Z,186.32
2023-04-25T01:36:26.284Z,183.25
2023-04-25T01:37:26.279Z,181.36
2023-04-25T01:38:26.314Z,184.26
2023-04-25T01:39:26.313Z,189.69
2023-04-25T01:40:26.332Z,190.13
2023-04-25T01:41:26.329Z,188.63
2023-04-25T01:42:26.345Z,187.34
2023-04-25T01:43:26.346Z,191.12
2023-04-25T01:44:26.350Z,186.57
2023-04-25T01:45:26.363Z,208.81
2023-04-25T01:46:26.480Z,222.32
2023-04-25T01:47:26.463Z,158.94
2023-04-25T01:48:26.401Z,127.15
2023-04-25T01:49:26.412Z,121.58
2023-04-25T01:50:26.432Z,102.84
2023-04-25T01:51:26.435Z,79.60
2023-04-25T01:52:26.420Z,74.43
2023-04-25T01:53:26.408Z,73.26
2023-04-25T01:54:26.437Z,76.38
2023-04-25T01:55:26.441Z,87.54
2023-04-25T01:56:26.426Z,117.34
2023-04-25T01:57:26.439Z,140.43
2023-04-25T01:58:26.473Z,140.53
2023-04-25T01:59:26.524Z,129.58
2023-04-25T02:00:26.588Z,127.51
2023-04-25T02:01:26.674Z,100.34
2023-04-25T02:02:26.834Z,99.38
2023-04-25T02:03:26.805Z,90.01
2023-04-25T02:04:26.889Z,92.87
2023-04-25T02:05:26.854Z,87.90
2023-04-25T02:06:26.931Z,72.76
2023-04-25T02:07:26.999Z,82.12
2023-04-25T02:08:27.063Z,94.31
2023-04-25T02:09:27.089Z,101.70
2023-04-25T02:10:27.111Z,115.99
2023-04-25T02:11:27.151Z,129.89
2023-04-25T02:12:27.228Z,145.27
2023-04-25T02:13:27.246Z,143.93
2023-04-25T02:14:27.306Z,144.60
2023-04-25T02:15:27.385Z,141.12
2023-04-25T02:16:27.515Z,114.18
2023-04-25T02:17:27.497Z,96.58
2023-04-25T02:18:27.559Z,99.05
2023-04-25T02:19:27.656Z,117.84
2023-04-25T02:20:27.673Z,142.40
2023-04-25T02:21:27.752Z,146.80
2023-04-25T02:22:27.857Z,169.22
2023-04-25T02:23:27.886Z,194.22
2023-04-25T02:24:27.930Z,210.64
2023-04-25T02:25:27.984Z,211.68
2023-04-25T02:26:28.023Z,196.63
2023-04-25T02:27:28.038Z,189.45
2023-04-25T02:28:28.059Z,199.01
2023-04-25T02:29:28.080Z,214.97
2023-04-25T02:30:28.131Z,226.33
2023-04-25T02:31:28.209Z,237.68
2023-04-25T02:32:28.323Z,248.85
2023-04-25T02:33:28.319Z,252.87
2023-04-25T02:34:28.388Z,259.72
2023-04-25T02:35:28.442Z,248.38
2023-04-25T02:36:28.501Z,240.84
2023-04-25T02:37:28.555Z,195.69
2023-04-25T02:38:28.632Z,168.35
2023-04-25T02:39:28.652Z,142.45
2023-04-25T02:40:28.707Z,138.60
2023-04-25T02:41:28.755Z,145.23
2023-04-25T02:42:28.810Z,152.68
2023-04-25T02:43:28.889Z,170.50
2023-04-25T02:44:29.001Z,190.47
2023-04-25T02:45:29.039Z,23.39
2023-04-25T02:46:38.857Z,0.00
2023-04-25T02:47:29.263Z,0.00
2023-04-25T02:48:29.141Z,0.00
2023-04-25T02:49:29.155Z,0.00
2023-04-25T02:50:29.161Z,0.00
2023-04-25T02:51:29.181Z,0.00
2023-04-25T02:52:29.205Z,0.00
2023-04-25T02:53:29.243Z,0.00
2023-04-25T02:54:29.349Z,0.00
2023-04-25T02:55:29.276Z,0.00
2023-04-25T02:56:29.321Z,0.00
2023-04-25T02:57:29.326Z,0.00
2023-04-25T02:58:29.357Z,0.00
2023-04-25T02:59:29.387Z,0.00
2023-04-25T03:00:29.459Z,26.11
2023-04-25T03:01:29.445Z,50.71
2023-04-25T03:02:29.551Z,42.50
2023-04-25T03:03:29.520Z,22.30
2023-04-25T03:04:29.564Z,5.94
2023-04-25T03:05:29.498Z,0.00
2023-04-25T03:06:29.494Z,0.00
2023-04-25T03:07:29.494Z,0.00
2023-04-25T03:08:29.497Z,0.00
2023-04-25T03:09:29.518Z,0.00
2023-04-25T03:10:29.541Z,0.00
2023-04-25T03:11:29.529Z,0.00
2023-04-25T03:12:29.531Z,0.00
2023-04-25T03:13:29.529Z,5.71
2023-04-25T03:14:29.533Z,20.22
2023-04-25T03:15:29.549Z,32.71
2023-04-25T03:16:29.595Z,46.61
2023-04-25T03:17:29.588Z,54.73
2023-04-25T03:18:29.561Z,38.26
2023-04-25T03:19:29.608Z,33.17
2023-04-25T03:20:29.676Z,49.50
2023-04-25T03:21:29.719Z,56.71
2023-04-25T03:22:29.770Z,62.96
2023-04-25T03:23:29.815Z,63.68
2023-04-25T03:24:29.910Z,70.30
2023-04-25T03:25:29.936Z,75.54
2023-04-25T03:26:29.997Z,78.27
2023-04-25T03:27:30.038Z,81.16
2023-04-25T03:28:30.131Z,79.52
2023-04-25T03:29:30.186Z,80.01
2023-04-25T03:30:30.258Z,83.20
2023-04-25T03:31:30.341Z,86.17
2023-04-25T03:32:30.390Z,91.86
2023-04-25T03:33:30.402Z,96.02
2023-04-25T03:34:30.456Z,100.72
2023-04-25T03:35:30.499Z,107.04
2023-04-25T03:36:30.529Z,110.79
2023-04-25T03:37:30.583Z,113.34
2023-04-25T03:38:30.610Z,118.25
2023-04-25T03:39:30.647Z,123.88
2023-04-25T03:40:30.682Z,123.62
2023-04-25T03:41:30.698Z,123.52
2023-04-25T03:42:30.749Z,134.34
2023-04-25T03:43:30.760Z,139.95
2023-04-25T03:44:30.804Z,139.33
2023-04-25T03:45:30.849Z,143.42
2023-04-25T03:46:31.048Z,145.00
2023-04-25T03:47:30.948Z,147.81
2023-04-25T03:48:30.956Z,146.09
2023-04-25T03:49:31.004Z,143.06
2023-04-25T03:50:31.026Z,144.66
2023-04-25T03:51:31.069Z,150.58
2023-04-25T03:52:31.090Z,157.13
2023-04-25T03:53:31.122Z,160.94
2023-04-25T03:54:31.159Z,161.75
2023-04-25T03:55:31.204Z,117.14
2023-04-25T03:56:31.260Z,26.34
2023-04-25T03:57:31.312Z,0.00
2023-04-25T03:58:31.397Z,0.00
2023-04-25T03:59:31.419Z,0.00
2023-04-25T04:00:31.477Z,0.00
2023-04-25T04:01:31.523Z,0.00
2023-04-25T04:02:31.636Z,0.00
2023-04-25T04:03:31.690Z,0.00
2023-04-25T04:04:31.878Z,0.00
2023-04-25T04:05:31.708Z,0.00
2023-04-25T04:06:31.701Z,0.00
2023-04-25T04:07:31.774Z,0.00
2023-04-25T04:08:31.867Z,0.00
2023-04-25T04:09:31.905Z,0.00
2023-04-25T04:10:31.976Z,0.00
2023-04-25T04:11:32.064Z,7.38
2023-04-25T04:12:32.127Z,34.94
2023-04-25T04:13:32.189Z,57.45
2023-04-25T04:14:32.283Z,77.81
2023-04-25T04:15:32.410Z,93.71
2023-04-25T04:16:34.425Z,101.17
2023-04-25T04:17:32.415Z,106.56
2023-04-25T04:18:32.404Z,110.72
2023-04-25T04:19:32.463Z,114.44
2023-04-25T04:20:32.443Z,121.74
2023-04-25T04:21:32.417Z,129.76
2023-04-25T04:22:32.432Z,128.07
2023-04-25T04:23:32.400Z,129.01
2023-04-25T04:24:32.410Z,131.30
2023-04-25T04:25:32.398Z,133.45
2023-04-25T04:26:32.390Z,134.66
2023-04-25T04:27:32.379Z,140.31
2023-04-25T04:28:32.389Z,146.54
2023-04-25T04:29:32.372Z,156.62
2023-04-25T04:30:32.389Z,161.84
2023-04-25T04:31:32.396Z,158.41
2023-04-25T04:32:32.423Z,155.31
2023-04-25T04:33:32.352Z,159.28
2023-04-25T04:34:32.393Z,152.34
2023-04-25T04:35:32.361Z,147.69
2023-04-25T04:36:32.338Z,148.04
2023-04-25T04:37:32.351Z,144.64
2023-04-25T04:38:32.336Z,152.08
2023-04-25T04:39:32.343Z,154.69
2023-04-25T04:40:32.357Z,159.52
2023-04-25T04:41:32.369Z,164.71
2023-04-25T04:42:32.390Z,172.16
2023-04-25T04:43:32.362Z,187.29
2023-04-25T04:44:32.370Z,188.58
2023-04-25T04:45:32.376Z,202.17
2023-04-25T04:46:32.485Z,209.34
2023-04-25T04:47:32.512Z,210.91
2023-04-25T04:48:32.535Z,197.50
2023-04-25T04:49:32.558Z,188.98
2023-04-25T04:50:32.608Z,184.58
2023-04-25T04:51:32.658Z,179.24
2023-04-25T04:52:32.710Z,169.61
2023-04-25T04:53:32.755Z,162.83
2023-04-25T04:54:32.796Z,159.97
2023-04-25T04:55:32.851Z,163.05
2023-04-25T04:56:32.871Z,168.14
2023-04-25T04:57:32.939Z,173.72
2023-04-25T04:58:32.943Z,171.78
2023-04-25T04:59:32.976Z,169.85
2023-04-25T05:00:33.045Z,175.03
2023-04-25T05:01:33.053Z,185.07
2023-04-25T05:02:33.281Z,190.02
2023-04-25T05:03:33.247Z,190.49
2023-04-25T05:04:33.193Z,195.30
2023-04-25T05:05:33.102Z,198.65
2023-04-25T05:06:33.129Z,200.25
2023-04-25T05:07:33.158Z,205.79
2023-04-25T05:08:33.151Z,210.07
2023-04-25T05:09:33.160Z,213.17
2023-04-25T05:10:33.181Z,243.56
2023-04-25T05:11:33.197Z,236.92
2023-04-25T05:12:34.124Z,228.89
2023-04-25T05:13:33.191Z,223.73
2023-04-25T05:14:33.182Z,218.03
2023-04-25T05:15:33.203Z,218.82
2023-04-25T05:16:33.265Z,215.70
2023-04-25T05:17:33.233Z,216.62
2023-04-25T05:18:33.203Z,230.43
2023-04-25T05:19:33.193Z,217.30
2023-04-25T05:20:33.220Z,219.98
2023-04-25T05:21:33.191Z,225.39
2023-04-25T05:22:33.461Z,215.05
2023-04-25T05:23:33.521Z,198.70
2023-04-25T05:24:33.189Z,191.86
2023-04-25T05:25:33.197Z,186.02
2023-04-25T05:26:33.186Z,188.26
2023-04-25T05:27:33.208Z,187.72
2023-04-25T05:28:33.177Z,186.34
2023-04-25T05:29:33.174Z,186.98
2023-04-25T05:30:33.170Z,181.10
2023-04-25T05:31:33.216Z,171.94
2023-04-25T05:32:33.179Z,169.91
2023-04-25T05:33:33.191Z,169.84
2023-04-25T05:34:33.281Z,166.60
2023-04-25T05:35:33.264Z,169.32
2023-04-25T05:36:33.145Z,171.98
2023-04-25T05:37:33.456Z,176.94
2023-04-25T05:38:34.842Z,174.27
2023-04-25T05:39:33.131Z,188.24
2023-04-25T05:40:33.082Z,202.00
2023-04-25T05:41:33.093Z,213.64
2023-04-25T05:42:33.506Z,221.29
2023-04-25T05:43:33.050Z,228.73
2023-04-25T05:44:33.068Z,235.03
2023-04-25T05:45:33.039Z,234.72
2023-04-25T05:46:33.038Z,235.24
2023-04-25T05:47:33.542Z,238.95
2023-04-25T05:48:32.996Z,236.64
2023-04-25T05:49:32.985Z,233.38
2023-04-25T05:50:32.983Z,229.51
2023-04-25T05:51:32.945Z,228.39
2023-04-25T05:52:32.955Z,226.90
2023-04-25T05:53:32.900Z,226.81
2023-04-25T05:54:36.079Z,225.01
2023-04-25T05:55:32.959Z,225.16
2023-04-25T05:56:32.851Z,225.36
2023-04-25T05:57:32.814Z,223.07
2023-04-25T05:58:33.068Z,221.82
2023-04-25T05:59:32.806Z,227.76
2023-04-25T06:00:33.547Z,237.94
2023-04-25T06:01:32.728Z,242.17
2023-04-25T06:02:32.863Z,220.08
2023-04-25T06:03:33.125Z,212.16
2023-04-25T06:04:36.111Z,200.17
2023-04-25T06:05:40.071Z,186.16
2023-04-25T06:06:32.598Z,181.46
2023-04-25T06:07:32.991Z,177.13
2023-04-25T06:08:32.998Z,167.12
2023-04-25T06:09:32.531Z,155.45
2023-04-25T06:10:35.678Z,151.48
2023-04-25T06:11:32.497Z,152.72
2023-04-25T06:12:32.474Z,143.17
2023-04-25T06:13:32.493Z,139.46
2023-04-25T06:14:32.424Z,137.97
2023-04-25T06:15:32.369Z,142.72
2023-04-25T06:16:32.469Z,150.57
2023-04-25T06:17:32.363Z,155.32
2023-04-25T06:18:32.276Z,154.59
2023-04-25T06:19:32.275Z,157.21
2023-04-25T06:20:32.217Z,159.28
2023-04-25T06:21:32.240Z,160.87
2023-04-25T06:22:32.205Z,163.44
2023-04-25T06:23:32.513Z,155.75
2023-04-25T06:24:32.129Z,138.15
2023-04-25T06:25:32.133Z,131.76
2023-04-25T06:26:32.124Z,129.77
2023-04-25T06:27:32.139Z,130.41
2023-04-25T06:28:32.125Z,134.35
2023-04-25T06:29:32.122Z,137.79
2023-04-25T06:30:32.576Z,140.11
2023-04-25T06:31:32.121Z,143.68
2023-04-25T06:32:32.155Z,145.34
2023-04-25T06:33:32.123Z,146.23
2023-04-25T06:34:32.080Z,145.92
2023-04-25T06:35:32.044Z,135.23
2023-04-25T06:36:32.026Z,111.41
2023-04-25T06:37:32.495Z,100.62
2023-04-25T06:38:31.991Z,90.14
2023-04-25T06:39:31.961Z,83.80
2023-04-25T06:40:31.969Z,86.18
2023-04-25T06:41:31.944Z,84.13
2023-04-25T06:42:31.958Z,70.82
2023-04-25T06:43:31.952Z,50.50
2023-04-25T06:44:32.510Z,49.10
2023-04-25T06:45:32.446Z,60.44
2023-04-25T06:46:33.033Z,53.18
2023-04-25T06:47:32.582Z,49.09
2023-04-25T06:48:32.199Z,72.67
2023-04-25T06:49:35.374Z,82.58
2023-04-25T06:50:32.517Z,82.86
2023-04-25T06:51:32.180Z,85.36
2023-04-25T06:52:32.982Z,86.47
2023-04-25T06:53:33.086Z,80.69
2023-04-25T06:54:32.595Z,79.18
2023-04-25T06:55:32.699Z,83.97
2023-04-25T06:56:32.360Z,57.33
2023-04-25T06:57:32.259Z,0.00
2023-04-25T06:58:32.511Z,0.00
2023-04-25T06:59:32.171Z,0.00
2023-04-25T07:00:32.261Z,0.00
2023-04-25T07:01:32.497Z,0.00
2023-04-25T07:02:32.147Z,0.00
2023-04-25T07:03:32.124Z,0.00
2023-04-25T07:04:32.199Z,0.00
2023-04-25T07:05:31.982Z,0.00
2023-04-25T07:06:31.886Z,0.00
2023-04-25T07:07:32.251Z,0.00
2023-04-25T07:08:31.821Z,0.00
2023-04-25T07:09:31.826Z,0.00
2023-04-25T07:10:32.003Z,0.00
2023-04-25T07:11:31.854Z,0.00
2023-04-25T07:12:31.940Z,0.00
2023-04-25T07:13:31.728Z,0.00
2023-04-25T07:14:31.713Z,0.00
2023-04-25T07:15:32.023Z,12.63
2023-04-25T07:16:31.641Z,19.22
2023-04-25T07:17:31.609Z,26.25
2023-04-25T07:18:31.571Z,24.89
2023-04-25T07:19:31.608Z,18.38
2023-04-25T07:20:31.551Z,12.76
2023-04-25T07:21:31.535Z,16.43
2023-04-25T07:22:31.980Z,24.87
2023-04-25T07:23:31.589Z,29.60
2023-04-25T07:24:31.587Z,35.02
2023-04-25T07:25:31.610Z,31.20
2023-04-25T07:26:31.567Z,26.86
2023-04-25T07:27:31.897Z,29.87
2023-04-25T07:28:31.786Z,33.04
2023-04-25T07:29:31.927Z,18.28
2023-04-25T07:30:31.666Z,10.02
2023-04-25T07:31:32.028Z,2.06
2023-04-25T07:32:31.909Z,0.00
2023-04-25T07:33:31.722Z,6.73
2023-04-25T07:34:31.897Z,23.30
2023-04-25T07:35:32.029Z,32.43
2023-04-25T07:36:32.434Z,39.70
2023-04-25T07:37:31.964Z,48.74
2023-04-25T07:38:31.997Z,57.55
2023-04-25T07:39:32.039Z,62.36
2023-04-25T07:40:32.381Z,71.07
2023-04-25T07:41:32.072Z,81.82
2023-04-25T07:42:31.882Z,89.77
2023-04-25T07:43:32.250Z,88.39
2023-04-25T07:44:32.327Z,78.21
2023-04-25T07:45:32.074Z,80.66
2023-04-25T07:46:32.188Z,84.65
2023-04-25T07:47:32.320Z,90.96
2023-04-25T07:48:32.623Z,88.90
2023-04-25T07:49:32.697Z,109.83
2023-04-25T07:50:32.236Z,136.25
2023-04-25T07:51:32.327Z,136.01
2023-04-25T07:52:32.146Z,126.78
2023-04-25T07:53:32.962Z,130.08
2023-04-25T07:54:32.486Z,130.15
2023-04-25T07:55:32.676Z,122.85
2023-04-25T07:56:45.110Z,106.03
2023-04-25T07:57:32.510Z,101.39
2023-04-25T07:58:33.396Z,95.12
2023-04-25T07:59:32.182Z,71.44
2023-04-25T08:00:32.188Z,55.42
2023-04-25T08:01:32.217Z,43.61
2023-04-25T08:02:32.602Z,45.65
2023-04-25T08:03:32.398Z,45.67
2023-04-25T08:04:32.821Z,41.26
2023-04-25T08:05:35.647Z,44.56
2023-04-25T08:06:33.505Z,43.77
2023-04-25T08:07:32.517Z,31.58
2023-04-25T08:08:32.500Z,24.14
2023-04-25T08:09:32.285Z,25.47
2023-04-25T08:10:32.490Z,32.84
2023-04-25T08:11:32.490Z,39.11
2023-04-25T08:12:32.619Z,38.40
2023-04-25T08:13:32.515Z,42.69
2023-04-25T08:14:32.482Z,44.62
2023-04-25T08:15:32.610Z,45.29
2023-04-25T08:16:32.596Z,48.12
2023-04-25T08:17:32.585Z,48.60
2023-04-25T08:18:33.004Z,49.48
2023-04-25T08:19:32.712Z,40.44
2023-04-25T08:20:32.692Z,41.51
2023-04-25T08:21:32.759Z,45.45
2023-04-25T08:22:32.812Z,51.15
2023-04-25T08:23:33.000Z,64.78
2023-04-25T08:24:32.891Z,65.78
2023-04-25T08:25:33.425Z,60.09
2023-04-25T08:26:33.048Z,52.22
2023-04-25T08:27:33.463Z,32.34
2023-04-25T08:28:33.002Z,22.36
2023-04-25T08:29:33.000Z,18.40
2023-04-25T08:30:33.052Z,16.80
2023-04-25T08:31:32.968Z,24.65
2023-04-25T08:32:32.952Z,27.87
2023-04-25T08:33:33.018Z,32.09
2023-04-25T08:34:32.946Z,29.72
2023-04-25T08:35:32.950Z,26.53
2023-04-25T08:36:39.442Z,34.88
2023-04-25T08:37:32.894Z,31.26
2023-04-25T08:38:33.558Z,29.93
2023-04-25T08:39:33.119Z,29.92
2023-04-25T08:40:33.048Z,21.33
2023-04-25T08:41:33.020Z,10.36
2023-04-25T08:42:32.998Z,0.00
2023-04-25T08:43:36.197Z,2.12
2023-04-25T08:44:33.017Z,2.14
2023-04-25T08:45:32.938Z,0.00
2023-04-25T08:46:34.145Z,0.00
2023-04-25T08:47:33.116Z,0.00
2023-04-25T08:48:33.026Z,0.00
2023-04-25T08:49:32.801Z,0.00
2023-04-25T08:50:32.816Z,0.00
2023-04-25T08:51:33.252Z,0.00
2023-04-25T08:52:32.818Z,1.52
2023-04-25T08:53:34.050Z,2.97
2023-04-25T08:54:35.166Z,2.26
2023-04-25T08:55:32.765Z,0.00
2023-04-25T08:56:32.745Z,0.00
2023-04-25T08:57:32.718Z,0.00
2023-04-25T08:58:33.076Z,0.00
2023-04-25T08:59:32.609Z,0.00
2023-04-25T09:00:32.751Z,0.00
2023-04-25T09:01:32.866Z,0.00
2023-04-25T09:02:32.602Z,7.47
2023-04-25T09:03:32.981Z,13.94
2023-04-25T09:04:32.434Z,21.49
2023-04-25T09:05:32.304Z,25.57
2023-04-25T09:06:32.258Z,21.53
2023-04-25T09:07:32.183Z,21.57
2023-04-25T09:08:32.155Z,24.01
2023-04-25T09:09:32.525Z,21.25
2023-04-25T09:10:33.148Z,25.25
2023-04-25T09:11:32.539Z,29.10
2023-04-25T09:12:32.114Z,38.03
2023-04-25T09:13:32.205Z,47.78
2023-04-25T09:14:32.126Z,61.35
2023-04-25T09:15:32.057Z,70.01
2023-04-25T09:16:33.659Z,76.99
2023-04-25T09:17:32.103Z,70.75
2023-04-25T09:18:31.855Z,72.66
2023-04-25T09:19:40.318Z,79.46
2023-04-25T09:20:33.361Z,75.22
2023-04-25T09:21:32.032Z,71.20
2023-04-25T09:22:31.628Z,71.90
2023-04-25T09:23:31.569Z,77.16
2023-04-25T09:24:31.513Z,71.73
2023-04-25T09:25:31.451Z,63.15
2023-04-25T09:26:31.555Z,63.26
2023-04-25T09:27:31.423Z,72.42
2023-04-25T09:28:31.297Z,68.59
2023-04-25T09:29:31.509Z,64.36
2023-04-25T09:30:31.512Z,64.03
2023-04-25T09:31:31.649Z,67.75
2023-04-25T09:32:31.140Z,74.82
2023-04-25T09:33:31.564Z,71.76
2023-04-25T09:34:31.606Z,77.96
2023-04-25T09:35:31.348Z,78.96
2023-04-25T09:36:30.704Z,71.05
2023-04-25T09:37:30.684Z,64.07
2023-04-25T09:38:30.762Z,62.57
2023-04-25T09:39:31.015Z,62.72
2023-04-25T09:40:31.015Z,60.92
2023-04-25T09:41:30.558Z,63.08
2023-04-25T09:42:30.533Z,60.95
2023-04-25T09:43:30.527Z,66.79
2023-04-25T09:44:30.494Z,65.09
2023-04-25T09:45:30.506Z,64.91
2023-04-25T09:46:30.516Z,63.20
2023-04-25T09:47:30.535Z,67.16
2023-04-25T09:48:30.435Z,66.11
2023-04-25T09:49:30.469Z,59.50
2023-04-25T09:50:30.348Z,54.35
2023-04-25T09:51:30.291Z,47.74
2023-04-25T09:52:30.217Z,50.36
2023-04-25T09:53:30.162Z,48.72
2023-04-25T09:54:30.533Z,47.61
2023-04-25T09:55:29.985Z,40.95
2023-04-25T09:56:29.929Z,32.68
2023-04-25T09:57:29.843Z,25.81
2023-04-25T09:58:31.851Z,26.59
2023-04-25T09:59:30.027Z,30.65
2023-04-25T10:00:29.612Z,33.68
2023-04-25T10:01:29.530Z,31.89
2023-04-25T10:02:29.568Z,20.48
2023-04-25T10:03:29.454Z,24.39
2023-04-25T10:04:30.643Z,23.48
2023-04-25T10:05:29.234Z,23.55
2023-04-25T10:06:29.120Z,24.55
2023-04-25T10:07:29.043Z,26.14
2023-04-25T10:08:28.988Z,30.50
2023-04-25T10:09:28.897Z,32.08
2023-04-25T10:10:30.777Z,37.77
2023-04-25T10:11:28.754Z,34.48
2023-04-25T10:12:28.693Z,10.72
2023-04-25T10:13:28.589Z,0.00
2023-04-25T10:14:29.025Z,0.00
2023-04-25T10:15:28.524Z,0.00
2023-04-25T10:16:28.469Z,0.00
2023-04-25T10:17:28.365Z,0.00
2023-04-25T10:18:28.536Z,1.28
2023-04-25T10:19:28.236Z,7.09
2023-04-25T10:20:28.153Z,15.14
2023-04-25T10:21:28.111Z,23.59
2023-04-25T10:22:28.026Z,26.57
2023-04-25T10:23:31.249Z,29.13
2023-04-25T10:24:28.024Z,29.31
2023-04-25T10:25:27.788Z,29.61
2023-04-25T10:27:26.676Z,30.12
2023-04-25T10:28:27.617Z,35.81
2023-04-25T10:29:28.080Z,49.55
2023-04-25T10:30:27.516Z,44.66
2023-04-25T10:31:27.639Z,34.15
2023-04-25T10:32:27.905Z,30.10
2023-04-25T10:33:28.050Z,24.00
2023-04-25T10:34:27.652Z,19.32
2023-04-25T10:35:27.728Z,26.17
2023-04-25T10:36:27.779Z,31.12
2023-04-25T10:37:28.140Z,23.27
2023-04-25T10:38:27.649Z,16.69
2023-04-25T10:39:28.062Z,7.75
2023-04-25T10:40:27.616Z,2.96
2023-04-25T10:41:27.603Z,0.00
2023-04-25T10:42:27.585Z,0.00
2023-04-25T10:43:27.590Z,0.00
2023-04-25T10:44:28.058Z,0.00
2023-04-25T10:45:27.737Z,0.00
2023-04-25T10:46:27.711Z,0.00
2023-04-25T10:47:27.669Z,0.00
2023-04-25T10:48:27.644Z,0.00
2023-04-25T10:49:28.070Z,20.73
2023-04-25T10:50:27.602Z,31.50
2023-04-25T10:52:26.572Z,31.35
2023-04-25T10:53:28.161Z,19.30
2023-04-25T10:54:27.512Z,9.51
2023-04-25T10:55:27.487Z,0.20
2023-04-25T10:56:27.487Z,0.00
2023-04-25T10:57:27.465Z,0.00
2023-04-25T10:58:27.530Z,0.00
2023-04-25T10:59:27.529Z,0.00
2023-04-25T11:00:33.922Z,0.00
2023-04-25T11:01:27.349Z,0.00
2023-04-25T11:02:27.286Z,0.00
2023-04-25T11:03:27.302Z,0.00
2023-04-25T11:04:27.772Z,0.00
2023-04-25T11:05:27.175Z,0.00
2023-04-25T11:07:48.067Z,25.00
2023-04-25T11:08:47.017Z,25.00
2023-04-25T11:09:46.399Z,25.00
2023-04-25T11:10:46.395Z,25.00
2023-04-25T11:11:46.149Z,25.00
2023-04-25T11:12:46.136Z,25.00
2023-04-25T11:13:46.394Z,0.00
2023-04-25T11:14:46.085Z,0.00
2023-04-25T11:15:46.065Z,82.53
2023-04-25T11:16:46.461Z,99.83
2023-04-25T11:17:46.263Z,136.76
2023-04-25T11:18:46.046Z,256.60
2023-04-25T11:19:46.407Z,70.67
2023-04-25T11:20:46.028Z,0.00
2023-04-25T11:21:46.464Z,0.00
2023-04-25T11:22:46.428Z,0.00
2023-04-25T11:23:46.089Z,0.00
2023-04-25T11:24:46.223Z,0.00
2023-04-25T11:25:46.129Z,0.00
2023-04-25T11:26:46.435Z,0.00
2023-04-25T11:27:46.425Z,36.94
2023-04-25T11:28:46.326Z,45.45
2023-04-25T11:29:46.325Z,25.22
2023-04-25T11:30:46.398Z,27.72
2023-04-25T11:31:46.536Z,34.24
2023-04-25T11:32:46.949Z,56.20
2023-04-25T11:33:46.598Z,105.67
2023-04-25T11:34:46.672Z,76.43
2023-04-25T11:35:46.922Z,50.91
2023-04-25T11:36:46.780Z,72.28
2023-04-25T11:37:46.829Z,162.32
2023-04-25T11:38:46.885Z,500.00
2023-04-25T11:39:46.935Z,500.00
2023-04-25T11:40:47.458Z,481.56
2023-04-25T11:41:47.034Z,373.38
2023-04-25T11:42:47.122Z,349.65
2023-04-25T11:43:47.177Z,399.76
2023-04-25T11:44:47.424Z,333.03
2023-04-25T11:45:47.270Z,317.36
2023-04-25T11:46:47.240Z,267.16
2023-04-25T11:47:47.312Z,204.37
2023-04-25T11:48:48.655Z,177.27
2023-04-25T11:49:47.407Z,142.48
2023-04-25T11:50:47.387Z,133.86
2023-04-25T11:51:47.418Z,141.94
2023-04-25T11:52:47.915Z,121.36
2023-04-25T11:53:47.510Z,121.94
2023-04-25T11:54:47.523Z,139.94
2023-04-25T11:55:47.567Z,134.74
2023-04-25T11:56:48.029Z,130.57
2023-04-25T11:57:47.933Z,122.94
2023-04-25T11:58:47.925Z,125.77
2023-04-25T11:59:47.796Z,113.26
2023-04-25T12:00:50.462Z,125.62
2023-04-25T12:01:47.976Z,130.12
2023-04-25T12:02:48.613Z,129.56
2023-04-25T12:03:48.421Z,149.96
2023-04-25T12:04:48.393Z,182.13
2023-04-25T12:05:48.505Z,215.74
2023-04-25T12:06:48.469Z,222.25
2023-04-25T12:07:48.422Z,238.71
2023-04-25T12:08:48.513Z,264.88
2023-04-25T12:09:48.403Z,283.04
2023-04-25T12:10:48.452Z,296.24
2023-04-25T12:11:48.544Z,314.10
2023-04-25T12:12:49.554Z,332.88
2023-04-25T12:13:48.676Z,373.31
2023-04-25T12:14:48.917Z,406.06
2023-04-25T12:15:48.842Z,417.56
2023-04-25T12:16:48.801Z,382.69
2023-04-25T12:17:48.897Z,382.27
2023-04-25T12:18:49.086Z,392.28
2023-04-25T12:19:49.432Z,417.88
2023-04-25T12:20:49.024Z,489.60
2023-04-25T12:22:48.477Z,455.41
2023-04-25T12:23:49.450Z,406.04
2023-04-25T12:24:50.039Z,377.47
2023-04-25T12:25:49.657Z,376.52
2023-04-25T12:26:49.450Z,363.21
2023-04-25T12:27:49.518Z,340.68
2023-04-25T12:28:49.896Z,347.49
2023-04-25T12:29:50.167Z,333.15
2023-04-25T12:30:49.751Z,322.06
2023-04-25T12:31:49.904Z,319.51
2023-04-25T12:32:49.976Z,314.87
2023-04-25T12:33:49.931Z,321.44
2023-04-25T12:34:50.433Z,303.94
2023-04-25T12:35:51.150Z,288.28
2023-04-25T12:36:50.066Z,276.08
2023-04-25T12:37:50.143Z,298.64
2023-04-25T12:38:50.436Z,292.73
2023-04-25T12:39:50.386Z,277.91
2023-04-25T12:40:50.443Z,263.39
2023-04-25T12:41:50.378Z,276.92
2023-04-25T12:42:50.918Z,333.57
2023-04-25T12:43:50.508Z,352.34
2023-04-25T12:44:50.700Z,342.50
2023-04-25T12:45:50.738Z,325.74
2023-04-25T12:46:50.994Z,336.05
2023-04-25T12:47:50.963Z,355.99
2023-04-25T12:48:51.263Z,376.28